Latest Weather Observations for Gunnedah Airport

IDN60801

Issued at 8:02 am EST Wednesday 4 May 2016 (issued every 30 minutes, with the page automatically refreshed every 10 minutes)

About weather observations | Map of weather stations | Latest weather observations for NSW | Other Formats
Station Details ID: 055202 Name: GUNNEDAH AIRPORT AWS Lat: -30.95 Lon: 150.25 Height: 262.57 m
Data from the previous 72 hours. | See also: Recent months at Gunnedah Airport
Date/Time
EST
Temp
°C
App
Temp
°C
Dew
Point
Rel
Hum
%
Delta-T
°C
Wind Press
QNH
hPa
Press
MSL
hPa
Rain
since 9 am
mm
Dir
 
Spd
km/h
Gust
km/h
Spd
kts
Gust
kts
04/08:00am 13.0 13.4 11.4 90 0.9 CALM 0 0 0 0 1018.3 1018.1 0.0
04/07:30am 11.1 11.2 10.3 95 0.4 CALM 0 0 0 0 1018.0 1017.9 0.0
04/07:00am 9.1 8.7 8.2 94 0.4 CALM 0 0 0 0 1017.5 1017.4 0.0
04/06:30am 8.4 7.8 7.5 94 0.4 CALM 0 0 0 0 1017.1 1017.0 0.0
04/06:00am 8.4 7.8 7.3 93 0.5 CALM 0 0 0 0 1016.6 1016.5 0.0
04/05:30am 8.9 8.4 8.0 94 0.4 CALM 0 0 0 0 1016.2 1016.0 0.0
04/05:00am 9.7 9.4 8.8 94 0.4 CALM 0 0 0 0 1015.9 1015.7 0.0
04/04:30am 9.4 9.1 8.5 94 0.4 CALM 0 0 0 0 1015.6 1015.4 0.0
04/04:00am 10.4 10.3 9.3 93 0.6 CALM 0 0 0 0 1015.3 1015.1 0.0
04/03:30am 10.2 10.0 9.0 92 0.6 CALM 0 0 0 0 1015.3 1015.1 0.0
04/03:00am 11.8 12.0 10.5 92 0.7 CALM 0 0 0 0 1015.2 1015.0 0.0
04/02:30am 12.3 12.6 10.9 91 0.7 CALM 0 0 0 0 1015.2 1015.0 0.0
04/02:00am 12.1 12.3 10.7 91 0.7 CALM 0 0 0 0 1015.3 1015.1 0.0
04/01:30am 12.5 12.6 10.2 86 1.2 CALM 0 0 0 0 1015.3 1015.1 0.0
04/01:00am 12.9 13.0 10.3 84 1.4 CALM 0 0 0 0 1015.3 1015.1 0.0
04/12:30am 14.7 15.2 11.5 81 1.7 CALM 0 0 0 0 1015.2 1015.0 0.0
04/12:00am 14.0 14.5 11.7 86 1.2 CALM 0 0 0 0 1015.1 1014.9 0.0
 
Date/Time
EST
Temp
°C
App
Temp
°C
Dew
Point
Rel
Hum
%
Delta-T
°C
Wind Press
QNH
hPa
Press
MSL
hPa
Rain
since 9 am
mm
Dir
 
Spd
km/h
Gust
km/h
Spd
kts
Gust
kts
03/11:30pm 13.8 14.1 11.0 83 1.5 CALM 0 0 0 0 1015.2 1015.0 0.0
03/11:00pm 14.5 15.0 11.5 82 1.6 CALM 0 0 0 0 1015.1 1014.9 0.0
03/10:30pm 14.6 14.7 11.4 81 1.7 NNW 2 7 1 4 1015.0 1014.8 0.0
03/10:00pm 14.8 15.0 11.8 82 1.6 ENE 2 7 1 4 1014.8 1014.6 0.0
03/09:30pm 14.4 14.9 11.6 83 1.5 CALM 0 0 0 0 1014.8 1014.6 0.0
03/09:00pm 15.3 15.7 11.3 77 2.2 CALM 0 0 0 0 1014.5 1014.3 0.0
03/08:30pm 16.2 15.1 12.0 76 2.3 NW 9 11 5 6 1014.1 1014.0 0.0
03/08:00pm 16.9 15.7 11.6 71 2.9 NNW 9 11 5 6 1013.6 1013.5 0.0
03/07:30pm 17.5 15.7 12.0 70 3.1 NNW 13 19 7 10 1013.7 1013.6 0.0
03/07:00pm 18.2 16.1 12.4 69 3.3 NNW 15 19 8 10 1013.5 1013.4 0.0
03/06:30pm 18.4 17.3 13.1 71 3.0 NNW 11 13 6 7 1013.4 1013.3 0.0
03/06:00pm 18.7 17.7 13.3 71 3.1 NNW 11 15 6 8 1012.8 1012.6 0.0
03/05:30pm 19.2 17.4 12.2 64 3.9 NNW 13 15 7 8 1012.1 1011.9 0.0
03/05:00pm 20.6 17.8 11.5 56 5.1 NNW 17 26 9 14 1011.9 1011.7 0.0
03/04:30pm 21.5 18.6 10.9 51 5.9 NW 17 24 9 13 1011.7 1011.5 0.0
03/04:00pm 22.5 19.9 11.9 51 6.0 NNW 17 28 9 15 1011.5 1011.3 0.0
03/03:30pm 21.7 19.1 12.0 54 5.5 NNW 17 24 9 13 1011.7 1011.5 0.0
03/03:00pm 21.3 18.2 11.6 54 5.5 NW 19 26 10 14 1011.9 1011.7 0.0
03/02:30pm 21.6 18.1 12.2 55 5.4 NW 22 33 12 18 1012.1 1011.9 0.0
03/02:00pm 22.2 19.5 13.0 56 5.3 NW 19 28 10 15 1012.1 1011.9 0.0
03/01:30pm 21.8 19.0 12.6 56 5.3 NW 19 24 10 13 1012.2 1012.0 0.0
03/01:00pm 20.9 17.7 13.1 61 4.5 NW 22 35 12 19 1012.9 1012.7 0.0
03/12:30pm 21.3 18.6 14.5 65 4.0 NW 22 30 12 16 1013.4 1013.3 0.0
03/12:00pm 20.2 19.4 15.2 73 3.0 NW 13 20 7 11 1013.9 1013.8 0.0
03/11:30am 19.2 18.0 14.0 72 3.0 NW 13 17 7 9 1014.5 1014.3 0.0
03/11:00am 19.3 18.2 14.3 73 2.9 WNW 13 19 7 10 1015.0 1014.8 0.0
03/10:30am 18.6 17.0 14.9 79 2.2 NW 17 24 9 13 1015.4 1015.2 0.0
03/10:00am 18.6 17.6 15.5 82 1.8 NW 15 19 8 10 1015.6 1015.4 0.0
03/09:30am 18.1 17.0 15.4 84 1.6 NW 15 20 8 11 1015.6 1015.4 0.0
03/09:00am 18.0 18.1 15.6 86 1.4 NNW 9 13 5 7 1015.7 1015.5 2.4
03/08:30am 16.9 16.6 15.4 91 0.9 NNW 11 15 6 8 1015.8 1015.6 2.4
03/08:00am 16.0 15.7 14.5 91 0.9 NW 9 13 5 7 1015.7 1015.5 2.4
03/07:30am 15.7 15.8 14.4 92 0.7 NNW 7 13 4 7 1015.6 1015.4 2.4
03/07:00am 15.4 15.1 14.3 93 0.6 NW 9 11 5 6 1015.4 1015.2 2.4
03/06:30am 15.4 15.0 14.1 92 0.7 NW 9 13 5 7 1015.3 1015.1 2.4
03/06:00am 15.6 14.5 14.3 92 0.7 NNW 13 17 7 9 1015.0 1014.8 2.4
03/05:30am 15.9 15.3 14.6 92 0.8 NNW 11 15 6 8 1014.7 1014.5 2.4
03/05:00am 15.9 16.2 14.6 92 0.8 NNW 6 9 3 5 1014.4 1014.2 2.4
03/04:30am 16.0 16.2 14.7 92 0.8 NW 7 9 4 5 1014.3 1014.1 2.4
03/04:00am 16.1 16.4 15.0 93 0.6 N 7 11 4 6 1014.0 1013.9 2.4
03/03:30am 16.1 16.6 15.0 93 0.6 NW 6 7 3 4 1014.1 1014.0 2.4
03/03:00am 16.0 17.6 15.0 94 0.6 CALM 0 0 0 0 1014.5 1014.3 2.4
03/02:30am 15.9 17.5 14.9 94 0.6 CALM 0 0 0 0 1014.7 1014.5 2.4
03/02:00am 15.7 17.2 14.7 94 0.6 CALM 0 0 0 0 1014.9 1014.7 2.4
03/01:30am 15.6 17.1 14.6 94 0.6 CALM 0 0 0 0 1015.2 1015.0 2.4
03/01:00am 15.8 17.3 14.7 93 0.6 CALM 0 0 0 0 1015.5 1015.3 2.4
03/12:30am 16.2 17.9 15.1 93 0.6 CALM 0 0 0 0 1015.9 1015.7 2.4
03/12:00am 16.4 18.1 15.3 93 0.6 CALM 0 0 0 0 1016.2 1016.0 2.4
 
Date/Time
EST
Temp
°C
App
Temp
°C
Dew
Point
Rel
Hum
%
Delta-T
°C
Wind Press
QNH
hPa
Press
MSL
hPa
Rain
since 9 am
mm
Dir
 
Spd
km/h
Gust
km/h
Spd
kts
Gust
kts
02/11:30pm 16.2 17.8 14.9 92 0.8 CALM 0 0 0 0 1016.1 1015.9 2.4
02/11:00pm 16.8 18.6 15.5 92 0.8 CALM 0 0 0 0 1016.0 1015.8 2.4
02/10:30pm 17.0 18.9 15.7 92 0.8 CALM 0 0 0 0 1016.3 1016.2 2.4
02/10:00pm 17.3 19.3 16.0 92 0.8 CALM 0 0 0 0 1016.2 1016.0 2.4
02/09:30pm 17.1 19.0 15.8 92 0.8 CALM 0 0 0 0 1016.2 1016.0 2.4
02/09:00pm 17.0 18.4 15.5 91 0.9 SSE 2 6 1 3 1016.3 1016.2 2.2
02/08:30pm 17.1 17.3 15.8 92 0.8 S 9 11 5 6 1016.4 1016.3 2.2
02/08:00pm 17.1 16.9 15.8 92 0.8 SE 11 17 6 9 1016.2 1016.0 2.2
02/07:30pm 17.5 19.6 16.2 92 0.8 CALM 0 0 0 0 1016.5 1016.4 2.2
02/07:00pm 17.4 18.3 16.1 92 0.8 S 6 7 3 4 1016.3 1016.2 2.2
02/06:30pm 17.5 19.5 16.0 91 0.9 CALM 0 7 0 4 1016.3 1016.2 2.2
02/06:00pm 17.8 18.5 16.0 89 1.1 N 7 13 4 7 1016.0 1015.8 2.2
02/05:30pm 18.0 16.3 16.3 90 1.0 N 20 24 11 13 1016.1 1015.9 2.0
02/05:00pm 18.3 18.7 16.3 88 1.2 NNW 9 13 5 7 1016.4 1016.3 1.2
02/04:30pm 18.6 17.4 16.0 85 1.6 NW 17 24 9 13 1016.7 1016.6 0.6
02/04:00pm 18.6 15.8 15.3 81 2.0 NNW 24 32 13 17 1016.1 1015.9 0.4
02/03:30pm 21.1 20.7 16.1 73 3.0 WNW 13 17 7 9 1015.3 1015.1 0.0
02/03:00pm 22.0 22.9 15.1 65 4.1 NW 4 11 2 6 1014.7 1014.5 0.0
02/02:30pm 22.1 22.5 14.7 63 4.4 N 6 9 3 5 1014.7 1014.5 0.0
02/02:00pm 22.3 22.5 14.2 60 4.8 W 6 9 3 5 1014.7 1014.5 0.0
02/01:30pm 22.3 23.1 14.7 62 4.5 NW 4 11 2 6 1014.6 1014.4 0.0
02/01:00pm 22.5 22.8 15.1 63 4.4 NW 7 13 4 7 1015.0 1014.8 0.0
02/12:30pm 22.5 22.9 15.4 64 4.3 ENE 7 11 4 6 1015.5 1015.3 0.0
02/12:00pm 21.3 21.8 14.9 67 3.8 SE 6 11 3 6 1016.0 1015.8 0.0
02/11:30am 20.8 20.0 15.1 70 3.4 SSE 13 17 7 9 1016.3 1016.2 0.0
02/11:00am 20.3 19.5 15.1 72 3.1 SE 13 17 7 9 1017.0 1016.9 0.0
02/10:30am 19.2 18.9 14.5 74 2.8 SE 9 15 5 8 1017.4 1017.3 0.0
02/10:00am 18.4 17.4 14.5 78 2.3 E 13 17 7 9 1017.9 1017.8 0.0
02/09:30am 17.7 16.1 15.1 85 1.5 ESE 17 20 9 11 1018.1 1018.0 0.0
02/09:00am 17.1 15.8 14.7 86 1.4 ESE 15 19 8 10 1018.6 1018.4 11.8
02/08:30am 16.8 15.5 14.8 88 1.2 E 15 20 8 11 1019.0 1018.8 11.8
02/08:00am 16.3 14.0 14.1 87 1.3 E 19 24 10 13 1018.6 1018.4 11.8
02/07:30am 16.1 16.4 14.5 90 0.9 ESE 6 13 3 7 1018.6 1018.4 11.8
02/07:00am 15.4 16.8 14.3 93 0.6 CALM 0 0 0 0 1018.7 1018.5 11.8
02/06:30am 14.8 14.3 13.7 93 0.6 E 9 13 5 7 1018.0 1017.9 11.8
02/06:00am 15.1 13.9 14.1 94 0.6 E 13 15 7 8 1017.8 1017.7 11.8
02/05:30am 14.9 14.8 13.4 91 0.8 ENE 6 7 3 4 1017.5 1017.4 11.8
02/05:00am 16.0 16.1 14.4 90 0.9 ESE 7 9 4 5 1017.2 1017.1 11.8
02/04:30am 16.8 18.5 15.3 91 0.9 CALM 0 0 0 0 1017.2 1017.1 11.8
02/04:00am 17.0 18.8 15.5 91 0.9 CALM 0 0 0 0 1017.2 1017.1 11.8
02/03:30am 17.1 17.6 15.6 91 0.9 NE 7 9 4 5 1016.8 1016.7 11.8
02/03:00am 17.0 17.5 15.5 91 0.9 N 7 11 4 6 1017.0 1016.9 11.8
02/02:30am 17.1 16.9 15.6 91 0.9 NNE 11 13 6 7 1017.0 1016.9 11.8
02/02:00am 17.5 18.2 16.0 91 0.9 N 7 11 4 6 1017.1 1017.0 11.8
02/01:30am 17.5 17.9 16.2 92 0.8 NNE 9 11 5 6 1017.3 1017.2 11.8
02/01:00am 17.6 18.5 16.1 91 0.9 NNE 6 11 3 6 1017.5 1017.4 11.8
02/12:30am 17.6 19.6 15.9 90 1.0 CALM 0 0 0 0 1017.8 1017.7 11.8
02/12:00am 17.3 19.2 15.8 91 0.9 CALM 0 11 0 6 1018.1 1018.0 11.8
 
Date/Time
EST
Temp
°C
App
Temp
°C
Dew
Point
Rel
Hum
%
Delta-T
°C
Wind Press
QNH
hPa
Press
MSL
hPa
Rain
since 9 am
mm
Dir
 
Spd
km/h
Gust
km/h
Spd
kts
Gust
kts
01/11:30pm 17.3 18.0 16.0 92 0.8 NW 7 9 4 5 1018.4 1018.2 11.8
01/11:00pm 17.2 17.9 16.1 93 0.7 NW 7 9 4 5 1018.5 1018.3 11.8
01/10:30pm 17.0 17.3 16.0 94 0.6 NW 9 13 5 7 1018.6 1018.4 11.8
01/10:00pm 16.6 18.4 15.6 94 0.6 CALM 0 0 0 0 1018.6 1018.4 11.8
01/09:30pm 15.5 16.9 14.5 94 0.6 CALM 0 0 0 0 1018.7 1018.5 11.8
01/09:00pm 15.4 15.4 14.3 93 0.6 NNW 7 9 4 5 1018.5 1018.3 11.8
01/08:30pm 15.6 15.8 14.1 91 0.9 N 6 7 3 4 1018.4 1018.2 11.8
01/08:00pm 16.4 15.9 14.9 91 0.9 N 11 13 6 7 1018.3 1018.1 11.8
01/07:30pm 17.1 17.5 15.4 90 1.0 NW 7 9 4 5 1018.0 1017.9 11.8
01/07:00pm 17.2 17.7 15.5 90 1.0 NW 7 9 4 5 1018.3 1018.1 11.8
01/06:30pm 17.7 18.5 15.9 89 1.1 NW 6 9 3 5 1018.3 1018.1 11.8
01/06:00pm 18.0 18.0 16.2 89 1.1 NNW 11 15 6 8 1018.3 1018.1 11.8
01/05:30pm 18.3 18.7 16.3 88 1.2 NW 9 13 5 7 1017.6 1017.5 11.8
01/05:00pm 18.7 19.2 16.5 87 1.3 NNW 9 11 5 6 1017.5 1017.4 11.8
01/04:30pm 18.8 19.7 16.6 87 1.3 N 7 11 4 6 1017.5 1017.4 11.8
01/04:00pm 18.8 19.3 16.6 87 1.3 NNW 9 13 5 7 1017.5 1017.4 11.8
01/03:30pm 18.8 18.8 16.2 85 1.6 NNW 11 15 6 8 1017.4 1017.3 11.8
01/03:00pm 18.8 18.7 16.0 84 1.7 NW 11 15 6 8 1017.1 1017.0 11.8
01/02:30pm 19.0 19.1 16.6 86 1.5 NNW 11 17 6 9 1017.3 1017.2 11.8
01/02:00pm 18.9 19.4 16.5 86 1.5 NNW 9 15 5 8 1016.9 1016.8 11.8
01/01:30pm 18.7 18.4 16.5 87 1.3 NNW 13 20 7 11 1017.1 1017.0 11.8
01/01:00pm 18.7 17.6 16.3 86 1.4 NNW 17 24 9 13 1017.4 1017.3 11.8
01/12:30pm 18.7 17.0 16.3 86 1.4 NNW 20 26 11 14 1017.2 1017.1 11.8
01/12:00pm 18.5 17.2 16.7 89 1.1 N 19 26 10 14 1017.6 1017.5 11.8
01/11:30am 18.2 18.1 17.0 93 0.7 N 13 19 7 10 1018.5 1018.3 11.6
01/11:00am 17.9 18.0 16.6 92 0.8 N 11 13 6 7 1018.7 1018.5 11.4
01/10:30am 17.7 18.1 16.4 92 0.8 NNE 9 11 5 6 1019.1 1018.9 10.8
01/10:00am 17.9 19.7 16.4 91 0.9 W 2 11 1 6 1020.0 1019.9 6.4
01/09:30am 18.2 20.3 16.2 88 1.2 CALM 0 0 0 0 1019.1 1018.4 0.6
01/09:00am 18.2 18.6 16.4 89 1.1 SW 9 13 5 7 1019.2 1018.5 13.0
01/08:30am 18.2 13.5 15.8 86 1.4 SW 35 52 19 28 1019.4 1018.7 12.8
01/08:25am 18.4 14.2 16.2 87 1.3 WSW 33 52 18 28 1019.6 1018.9 12.6
01/08:24am 18.5 14.3 16.3 87 1.3 WSW 33 50 18 27 1019.7 1019.0 12.6

Other Formats:

Comma delimited format used in spreadsheet applications
http://www.bom.gov.au/fwo/IDN60801/IDN60801.95740.axf

JavaScript Object Notation format (JSON) in row-major order
http://www.bom.gov.au/fwo/IDN60801/IDN60801.95740.json